Bengal, Indiana
Current Conditions -  °F | °C
As of 11:15 AM on Thursday 23 Oct 2014 (Local Time) from K1II Reporting Station
Clear Clear  
Wind Chill: 46°   Ceiling: Unl
Heat Index: 46°   Visibility: 10mi
Dew Point: 46°   Wind: 0mph
Humidity: 100%   Direction: NA
Pressure: 30.26"   Gusts: NA
Location:  39.4841°N, 86.0843°W
Report Text: K1II 231515Z AUTO 00000KT 10SM CLR 08/08 A3026 RMK AO2
Loading
Personal Weather Stations






























Interactive Weather Map
Tropical Storm Tracking
New forecast layout! Learn more

10-Day Weather Forecast

Advertisements
Track Severe Weather on mobile